sensor_id;sensor_type;location;lat;lon;timestamp;temperature;humidity
8436;DHT22;4255;48.730;9.156;2023-05-07T00:01:01;16.40;65.20
8436;DHT22;4255;48.730;9.156;2023-05-07T00:03:27;16.30;70.50
8436;DHT22;4255;48.730;9.156;2023-05-07T00:05:54;16.30;69.90
8436;DHT22;4255;48.730;9.156;2023-05-07T00:08:19;16.30;67.50
8436;DHT22;4255;48.730;9.156;2023-05-07T00:10:45;16.20;76.50
8436;DHT22;4255;48.730;9.156;2023-05-07T00:13:11;16.20;82.20
8436;DHT22;4255;48.730;9.156;2023-05-07T00:15:37;16.20;92.20
8436;DHT22;4255;48.730;9.156;2023-05-07T00:18:03;16.10;93.20
8436;DHT22;4255;48.730;9.156;2023-05-07T00:20:28;16.10;98.00
8436;DHT22;4255;48.730;9.156;2023-05-07T00:22:54;16.10;96.00
8436;DHT22;4255;48.730;9.156;2023-05-07T00:25:20;16.20;95.70
8436;DHT22;4255;48.730;9.156;2023-05-07T00:27:45;16.20;91.70
8436;DHT22;4255;48.730;9.156;2023-05-07T00:30:11;16.10;95.50
8436;DHT22;4255;48.730;9.156;2023-05-07T00:32:38;16.10;99.90
8436;DHT22;4255;48.730;9.156;2023-05-07T00:35:04;16.00;99.90
8436;DHT22;4255;48.730;9.156;2023-05-07T00:37:30;16.00;99.90
8436;DHT22;4255;48.730;9.156;2023-05-07T00:39:56;16.00;99.90
8436;DHT22;4255;48.730;9.156;2023-05-07T00:42:21;16.00;99.90
8436;DHT22;4255;48.730;9.156;2023-05-07T00:44:47;16.00;99.90
8436;DHT22;4255;48.730;9.156;2023-05-07T00:47:13;15.90;99.90
8436;DHT22;4255;48.730;9.156;2023-05-07T00:49:42;15.90;99.90
8436;DHT22;4255;48.730;9.156;2023-05-07T00:52:11;15.90;99.90
8436;DHT22;4255;48.730;9.156;2023-05-07T00:54:37;15.90;99.90
8436;DHT22;4255;48.730;9.156;2023-05-07T00:57:03;16.00;99.90
8436;DHT22;4255;48.730;9.156;2023-05-07T00:59:30;15.90;99.90
8436;DHT22;4255;48.730;9.156;2023-05-07T01:01:57;15.90;99.90
8436;DHT22;4255;48.730;9.156;2023-05-07T01:04:22;15.90;99.90
8436;DHT22;4255;48.730;9.156;2023-05-07T01:06:48;15.90;99.90
8436;DHT22;4255;48.730;9.156;2023-05-07T01:09:14;15.80;99.90
8436;DHT22;4255;48.730;9.156;2023-05-07T01:11:40;15.80;99.90
8436;DHT22;4255;48.730;9.156;2023-05-07T01:14:07;15.80;99.90
8436;DHT22;4255;48.730;9.156;2023-05-07T01:16:34;15.80;99.90
8436;DHT22;4255;48.730;9.156;2023-05-07T01:19:00;15.80;99.90
8436;DHT22;4255;48.730;9.156;2023-05-07T01:21:26;15.70;99.90
8436;DHT22;4255;48.730;9.156;2023-05-07T01:23:53;15.70;99.90
8436;DHT22;4255;48.730;9.156;2023-05-07T01:26:20;15.80;99.90
8436;DHT22;4255;48.730;9.156;2023-05-07T01:28:47;15.70;99.90
8436;DHT22;4255;48.730;9.156;2023-05-07T01:31:13;15.70;99.90
8436;DHT22;4255;48.730;9.156;2023-05-07T01:33:40;15.80;99.90
8436;DHT22;4255;48.730;9.156;2023-05-07T01:36:08;15.70;99.90
8436;DHT22;4255;48.730;9.156;2023-05-07T01:38:34;15.70;99.90
8436;DHT22;4255;48.730;9.156;2023-05-07T01:41:01;15.70;99.90
8436;DHT22;4255;48.730;9.156;2023-05-07T01:43:28;15.70;99.90
8436;DHT22;4255;48.730;9.156;2023-05-07T01:45:55;15.60;99.90
8436;DHT22;4255;48.730;9.156;2023-05-07T01:48:21;15.50;99.90
8436;DHT22;4255;48.730;9.156;2023-05-07T01:50:47;15.50;99.90
8436;DHT22;4255;48.730;9.156;2023-05-07T01:53:13;15.60;99.90
8436;DHT22;4255;48.730;9.156;2023-05-07T01:55:38;15.60;99.90
8436;DHT22;4255;48.730;9.156;2023-05-07T01:58:05;15.60;99.90
8436;DHT22;4255;48.730;9.156;2023-05-07T02:00:31;15.60;99.90
8436;DHT22;4255;48.730;9.156;2023-05-07T02:02:57;15.50;99.90
8436;DHT22;4255;48.730;9.156;2023-05-07T02:05:23;15.60;99.90
8436;DHT22;4255;48.730;9.156;2023-05-07T02:07:48;15.60;99.90
8436;DHT22;4255;48.730;9.156;2023-05-07T02:10:14;15.60;99.90
8436;DHT22;4255;48.730;9.156;2023-05-07T02:12:39;15.60;99.90
8436;DHT22;4255;48.730;9.156;2023-05-07T02:15:05;15.60;99.90
8436;DHT22;4255;48.730;9.156;2023-05-07T02:17:31;15.60;99.90
8436;DHT22;4255;48.730;9.156;2023-05-07T02:19:58;15.60;99.90
8436;DHT22;4255;48.730;9.156;2023-05-07T02:22:24;15.60;99.90
8436;DHT22;4255;48.730;9.156;2023-05-07T02:24:49;15.60;99.90
8436;DHT22;4255;48.730;9.156;2023-05-07T02:27:15;15.60;99.90
8436;DHT22;4255;48.730;9.156;2023-05-07T02:29:40;15.60;99.90
8436;DHT22;4255;48.730;9.156;2023-05-07T02:32:06;15.40;99.90
8436;DHT22;4255;48.730;9.156;2023-05-07T02:34:32;15.40;99.90
8436;DHT22;4255;48.730;9.156;2023-05-07T02:36:57;15.40;99.90
8436;DHT22;4255;48.730;9.156;2023-05-07T02:39:23;15.40;99.90
8436;DHT22;4255;48.730;9.156;2023-05-07T02:41:48;15.40;99.90
8436;DHT22;4255;48.730;9.156;2023-05-07T02:44:14;15.50;99.90
8436;DHT22;4255;48.730;9.156;2023-05-07T02:46:40;15.40;99.90
8436;DHT22;4255;48.730;9.156;2023-05-07T02:49:05;15.40;99.90
8436;DHT22;4255;48.730;9.156;2023-05-07T02:51:31;15.40;99.90
8436;DHT22;4255;48.730;9.156;2023-05-07T02:53:57;15.40;99.90
8436;DHT22;4255;48.730;9.156;2023-05-07T02:56:22;15.30;99.90
8436;DHT22;4255;48.730;9.156;2023-05-07T02:58:48;15.30;99.90
8436;DHT22;4255;48.730;9.156;2023-05-07T03:01:13;15.30;99.90
8436;DHT22;4255;48.730;9.156;2023-05-07T03:03:40;15.30;99.90
8436;DHT22;4255;48.730;9.156;2023-05-07T03:06:06;15.20;99.90
8436;DHT22;4255;48.730;9.156;2023-05-07T03:08:32;15.20;99.90
8436;DHT22;4255;48.730;9.156;2023-05-07T03:10:58;15.20;99.90
8436;DHT22;4255;48.730;9.156;2023-05-07T03:13:24;15.00;99.90
8436;DHT22;4255;48.730;9.156;2023-05-07T03:15:49;15.00;99.90
8436;DHT22;4255;48.730;9.156;2023-05-07T03:18:15;14.90;99.90
8436;DHT22;4255;48.730;9.156;2023-05-07T03:20:41;14.90;99.90
8436;DHT22;4255;48.730;9.156;2023-05-07T03:23:06;14.80;99.90
8436;DHT22;4255;48.730;9.156;2023-05-07T03:25:32;14.80;99.90
8436;DHT22;4255;48.730;9.156;2023-05-07T03:27:58;14.80;99.90
8436;DHT22;4255;48.730;9.156;2023-05-07T03:30:23;14.80;99.90
8436;DHT22;4255;48.730;9.156;2023-05-07T03:32:49;14.70;99.90
8436;DHT22;4255;48.730;9.156;2023-05-07T03:35:15;14.70;99.90
8436;DHT22;4255;48.730;9.156;2023-05-07T03:37:41;14.60;99.90
8436;DHT22;4255;48.730;9.156;2023-05-07T03:40:07;14.60;99.90
8436;DHT22;4255;48.730;9.156;2023-05-07T03:42:33;14.60;99.90
8436;DHT22;4255;48.730;9.156;2023-05-07T03:44:59;14.60;99.90
8436;DHT22;4255;48.730;9.156;2023-05-07T03:47:24;14.60;99.90
8436;DHT22;4255;48.730;9.156;2023-05-07T03:49:50;14.60;99.90
8436;DHT22;4255;48.730;9.156;2023-05-07T03:52:18;14.60;99.90
8436;DHT22;4255;48.730;9.156;2023-05-07T03:54:48;14.60;99.90
8436;DHT22;4255;48.730;9.156;2023-05-07T03:57:13;14.50;99.90
8436;DHT22;4255;48.730;9.156;2023-05-07T03:59:39;14.60;99.90
8436;DHT22;4255;48.730;9.156;2023-05-07T04:02:05;14.60;99.90
8436;DHT22;4255;48.730;9.156;2023-05-07T04:04:30;14.60;99.90
8436;DHT22;4255;48.730;9.156;2023-05-07T04:06:58;14.60;99.90
8436;DHT22;4255;48.730;9.156;2023-05-07T04:09:24;14.60;99.90
8436;DHT22;4255;48.730;9.156;2023-05-07T04:11:51;14.60;99.90
8436;DHT22;4255;48.730;9.156;2023-05-07T04:14:16;14.50;99.90
8436;DHT22;4255;48.730;9.156;2023-05-07T04:16:42;14.50;99.90
8436;DHT22;4255;48.730;9.156;2023-05-07T04:19:07;14.50;99.90
8436;DHT22;4255;48.730;9.156;2023-05-07T04:21:33;14.50;99.90
8436;DHT22;4255;48.730;9.156;2023-05-07T04:23:58;14.50;99.90
8436;DHT22;4255;48.730;9.156;2023-05-07T04:26:24;14.50;99.90
8436;DHT22;4255;48.730;9.156;2023-05-07T04:28:50;14.60;99.90
8436;DHT22;4255;48.730;9.156;2023-05-07T04:31:16;14.60;99.90
8436;DHT22;4255;48.730;9.156;2023-05-07T04:33:41;14.70;99.90
8436;DHT22;4255;48.730;9.156;2023-05-07T04:36:07;14.70;99.90
8436;DHT22;4255;48.730;9.156;2023-05-07T04:38:33;14.80;99.90
8436;DHT22;4255;48.730;9.156;2023-05-07T04:41:03;14.80;99.90
8436;DHT22;4255;48.730;9.156;2023-05-07T04:43:29;14.90;99.90
8436;DHT22;4255;48.730;9.156;2023-05-07T04:45:55;14.90;99.90
8436;DHT22;4255;48.730;9.156;2023-05-07T04:48:20;15.00;99.90
8436;DHT22;4255;48.730;9.156;2023-05-07T04:50:49;15.10;99.90
8436;DHT22;4255;48.730;9.156;2023-05-07T04:53:16;15.20;99.90
8436;DHT22;4255;48.730;9.156;2023-05-07T04:55:41;15.20;99.90
8436;DHT22;4255;48.730;9.156;2023-05-07T04:58:07;15.20;99.90
8436;DHT22;4255;48.730;9.156;2023-05-07T05:00:33;15.10;99.90
8436;DHT22;4255;48.730;9.156;2023-05-07T05:02:59;15.10;99.90
8436;DHT22;4255;48.730;9.156;2023-05-07T05:05:24;15.10;99.90
8436;DHT22;4255;48.730;9.156;2023-05-07T05:07:50;15.10;99.90
8436;DHT22;4255;48.730;9.156;2023-05-07T05:10:17;15.10;99.90
8436;DHT22;4255;48.730;9.156;2023-05-07T05:12:43;15.10;99.90
8436;DHT22;4255;48.730;9.156;2023-05-07T05:15:11;15.20;99.90
8436;DHT22;4255;48.730;9.156;2023-05-07T05:17:38;15.30;99.90
8436;DHT22;4255;48.730;9.156;2023-05-07T05:20:04;15.40;99.90
8436;DHT22;4255;48.730;9.156;2023-05-07T05:22:30;15.50;99.90
8436;DHT22;4255;48.730;9.156;2023-05-07T05:24:56;15.70;99.90
8436;DHT22;4255;48.730;9.156;2023-05-07T05:27:22;15.90;99.90
8436;DHT22;4255;48.730;9.156;2023-05-07T05:29:48;16.10;99.90
8436;DHT22;4255;48.730;9.156;2023-05-07T05:32:13;16.40;99.90
8436;DHT22;4255;48.730;9.156;2023-05-07T05:34:39;16.60;99.90
8436;DHT22;4255;48.730;9.156;2023-05-07T05:37:05;16.90;99.90
8436;DHT22;4255;48.730;9.156;2023-05-07T05:39:31;17.10;99.90
8436;DHT22;4255;48.730;9.156;2023-05-07T05:41:56;17.20;99.90
8436;DHT22;4255;48.730;9.156;2023-05-07T05:44:22;17.20;66.50
8436;DHT22;4255;48.730;9.156;2023-05-07T05:46:47;17.30;61.90
8436;DHT22;4255;48.730;9.156;2023-05-07T05:49:15;17.50;55.10
8436;DHT22;4255;48.730;9.156;2023-05-07T05:51:41;17.70;34.70
8436;DHT22;4255;48.730;9.156;2023-05-07T05:54:06;17.80;23.40
8436;DHT22;4255;48.730;9.156;2023-05-07T05:56:32;17.90;21.70
8436;DHT22;4255;48.730;9.156;2023-05-07T05:58:58;18.10;23.00
8436;DHT22;4255;48.730;9.156;2023-05-07T06:01:23;18.20;27.20
8436;DHT22;4255;48.730;9.156;2023-05-07T06:03:49;18.20;8.70
8436;DHT22;4255;48.730;9.156;2023-05-07T06:06:15;18.40;13.40
8436;DHT22;4255;48.730;9.156;2023-05-07T06:08:41;18.50;1.00
8436;DHT22;4255;48.730;9.156;2023-05-07T06:11:07;18.50;92.40
8436;DHT22;4255;48.730;9.156;2023-05-07T06:13:32;18.70;1.00
8436;DHT22;4255;48.730;9.156;2023-05-07T06:15:58;18.70;1.00
8436;DHT22;4255;48.730;9.156;2023-05-07T06:18:24;18.80;1.00
8436;DHT22;4255;48.730;9.156;2023-05-07T06:20:51;18.90;1.00
8436;DHT22;4255;48.730;9.156;2023-05-07T06:23:17;19.10;1.00
8436;DHT22;4255;48.730;9.156;2023-05-07T06:25:45;19.10;1.00
8436;DHT22;4255;48.730;9.156;2023-05-07T06:28:11;19.10;1.00
8436;DHT22;4255;48.730;9.156;2023-05-07T06:30:37;19.00;1.00
8436;DHT22;4255;48.730;9.156;2023-05-07T06:33:02;18.90;1.00
8436;DHT22;4255;48.730;9.156;2023-05-07T06:35:28;18.60;1.00
8436;DHT22;4255;48.730;9.156;2023-05-07T06:37:53;18.40;1.00
8436;DHT22;4255;48.730;9.156;2023-05-07T06:40:19;18.20;1.00
8436;DHT22;4255;48.730;9.156;2023-05-07T06:42:44;18.20;2.80
8436;DHT22;4255;48.730;9.156;2023-05-07T06:45:10;18.30;23.20
8436;DHT22;4255;48.730;9.156;2023-05-07T06:47:36;18.20;16.50
8436;DHT22;4255;48.730;9.156;2023-05-07T06:50:02;18.30;33.70
8436;DHT22;4255;48.730;9.156;2023-05-07T06:52:27;18.20;20.00
8436;DHT22;4255;48.730;9.156;2023-05-07T06:54:53;18.30;99.90
8436;DHT22;4255;48.730;9.156;2023-05-07T06:57:18;18.50;20.90
8436;DHT22;4255;48.730;9.156;2023-05-07T06:59:44;18.60;1.00
8436;DHT22;4255;48.730;9.156;2023-05-07T07:02:09;18.80;11.70
8436;DHT22;4255;48.730;9.156;2023-05-07T07:04:35;18.80;3.70
8436;DHT22;4255;48.730;9.156;2023-05-07T07:07:01;18.80;15.30
8436;DHT22;4255;48.730;9.156;2023-05-07T07:09:26;19.00;1.00
8436;DHT22;4255;48.730;9.156;2023-05-07T07:11:52;19.30;1.00
8436;DHT22;4255;48.730;9.156;2023-05-07T07:14:17;19.30;1.00
8436;DHT22;4255;48.730;9.156;2023-05-07T07:16:43;19.30;1.00
8436;DHT22;4255;48.730;9.156;2023-05-07T07:19:08;19.20;1.00
8436;DHT22;4255;48.730;9.156;2023-05-07T07:21:34;19.30;1.00
8436;DHT22;4255;48.730;9.156;2023-05-07T07:24:00;19.40;1.00
8436;DHT22;4255;48.730;9.156;2023-05-07T07:26:25;19.60;1.00
8436;DHT22;4255;48.730;9.156;2023-05-07T07:28:51;19.90;1.00
8436;DHT22;4255;48.730;9.156;2023-05-07T07:31:16;20.20;1.00
8436;DHT22;4255;48.730;9.156;2023-05-07T07:33:42;20.50;1.00
8436;DHT22;4255;48.730;9.156;2023-05-07T07:36:09;20.50;1.00
8436;DHT22;4255;48.730;9.156;2023-05-07T07:38:35;20.80;1.00
8436;DHT22;4255;48.730;9.156;2023-05-07T07:41:01;20.90;1.00
8436;DHT22;4255;48.730;9.156;2023-05-07T07:43:27;21.20;1.00
8436;DHT22;4255;48.730;9.156;2023-05-07T07:45:53;21.30;1.00
8436;DHT22;4255;48.730;9.156;2023-05-07T07:48:18;21.40;1.00
8436;DHT22;4255;48.730;9.156;2023-05-07T07:50:44;21.70;1.00
8436;DHT22;4255;48.730;9.156;2023-05-07T07:53:10;22.10;1.00
8436;DHT22;4255;48.730;9.156;2023-05-07T07:55:41;22.50;1.00
8436;DHT22;4255;48.730;9.156;2023-05-07T07:58:07;22.80;99.90
8436;DHT22;4255;48.730;9.156;2023-05-07T08:00:32;23.10;23.10
8436;DHT22;4255;48.730;9.156;2023-05-07T08:02:58;23.20;7.00
8436;DHT22;4255;48.730;9.156;2023-05-07T08:05:24;23.40;1.00
8436;DHT22;4255;48.730;9.156;2023-05-07T08:07:50;23.60;1.00
8436;DHT22;4255;48.730;9.156;2023-05-07T08:10:19;23.60;1.00
8436;DHT22;4255;48.730;9.156;2023-05-07T08:12:49;23.50;1.00
8436;DHT22;4255;48.730;9.156;2023-05-07T08:15:15;23.50;1.00
8436;DHT22;4255;48.730;9.156;2023-05-07T08:17:41;23.60;1.00
8436;DHT22;4255;48.730;9.156;2023-05-07T08:20:07;23.60;1.00
8436;DHT22;4255;48.730;9.156;2023-05-07T08:22:34;23.60;1.00
8436;DHT22;4255;48.730;9.156;2023-05-07T08:24:59;23.70;99.90
8436;DHT22;4255;48.730;9.156;2023-05-07T08:27:25;23.60;99.90
8436;DHT22;4255;48.730;9.156;2023-05-07T08:29:51;23.70;38.30
8436;DHT22;4255;48.730;9.156;2023-05-07T08:32:16;24.10;94.20
8436;DHT22;4255;48.730;9.156;2023-05-07T08:34:42;24.00;1.00
8436;DHT22;4255;48.730;9.156;2023-05-07T08:37:08;24.10;1.00
8436;DHT22;4255;48.730;9.156;2023-05-07T08:39:33;24.20;1.00
8436;DHT22;4255;48.730;9.156;2023-05-07T08:42:01;24.10;99.90
8436;DHT22;4255;48.730;9.156;2023-05-07T08:44:35;24.10;1.00
8436;DHT22;4255;48.730;9.156;2023-05-07T08:47:06;24.20;1.00
8436;DHT22;4255;48.730;9.156;2023-05-07T08:49:33;24.10;99.90
8436;DHT22;4255;48.730;9.156;2023-05-07T08:51:59;24.00;22.50
8436;DHT22;4255;48.730;9.156;2023-05-07T08:54:25;24.30;99.90
8436;DHT22;4255;48.730;9.156;2023-05-07T08:56:51;24.10;99.90
8436;DHT22;4255;48.730;9.156;2023-05-07T08:59:17;24.10;1.00
8436;DHT22;4255;48.730;9.156;2023-05-07T09:01:42;24.40;1.00
8436;DHT22;4255;48.730;9.156;2023-05-07T09:04:08;24.60;99.90
8436;DHT22;4255;48.730;9.156;2023-05-07T09:06:34;24.80;1.00
8436;DHT22;4255;48.730;9.156;2023-05-07T09:09:00;24.90;1.00
8436;DHT22;4255;48.730;9.156;2023-05-07T09:11:27;24.80;1.00
8436;DHT22;4255;48.730;9.156;2023-05-07T09:13:56;24.50;99.90
8436;DHT22;4255;48.730;9.156;2023-05-07T09:16:23;24.30;1.00
8436;DHT22;4255;48.730;9.156;2023-05-07T09:18:52;24.10;99.90
8436;DHT22;4255;48.730;9.156;2023-05-07T09:21:19;24.30;1.00
8436;DHT22;4255;48.730;9.156;2023-05-07T09:23:45;24.50;1.00
8436;DHT22;4255;48.730;9.156;2023-05-07T09:26:10;24.60;1.00
8436;DHT22;4255;48.730;9.156;2023-05-07T09:28:42;24.50;1.00
8436;DHT22;4255;48.730;9.156;2023-05-07T09:31:09;24.60;99.90
8436;DHT22;4255;48.730;9.156;2023-05-07T09:33:35;24.70;1.00
8436;DHT22;4255;48.730;9.156;2023-05-07T09:36:04;24.50;1.00
8436;DHT22;4255;48.730;9.156;2023-05-07T09:38:32;24.40;1.00
8436;DHT22;4255;48.730;9.156;2023-05-07T09:41:13;24.30;1.00
8436;DHT22;4255;48.730;9.156;2023-05-07T09:43:39;24.50;1.00
8436;DHT22;4255;48.730;9.156;2023-05-07T09:46:11;24.60;1.00
8436;DHT22;4255;48.730;9.156;2023-05-07T09:48:39;24.80;1.00
8436;DHT22;4255;48.730;9.156;2023-05-07T09:53:50;25.10;99.90
8436;DHT22;4255;48.730;9.156;2023-05-07T09:56:17;25.40;1.00
8436;DHT22;4255;48.730;9.156;2023-05-07T09:58:45;25.30;1.00
8436;DHT22;4255;48.730;9.156;2023-05-07T10:01:12;25.20;1.00
8436;DHT22;4255;48.730;9.156;2023-05-07T10:03:40;25.10;1.00
8436;DHT22;4255;48.730;9.156;2023-05-07T10:06:08;25.20;99.90
8436;DHT22;4255;48.730;9.156;2023-05-07T10:08:34;25.40;1.00
8436;DHT22;4255;48.730;9.156;2023-05-07T10:11:01;25.30;1.00
8436;DHT22;4255;48.730;9.156;2023-05-07T10:13:27;25.40;1.00
8436;DHT22;4255;48.730;9.156;2023-05-07T10:15:52;25.50;99.90
8436;DHT22;4255;48.730;9.156;2023-05-07T10:18:20;25.90;99.90
8436;DHT22;4255;48.730;9.156;2023-05-07T10:20:50;26.10;99.90
8436;DHT22;4255;48.730;9.156;2023-05-07T10:23:21;25.70;99.90
8436;DHT22;4255;48.730;9.156;2023-05-07T10:25:48;25.70;1.00
8436;DHT22;4255;48.730;9.156;2023-05-07T10:28:14;25.70;1.00
8436;DHT22;4255;48.730;9.156;2023-05-07T10:33:11;25.60;1.00
8436;DHT22;4255;48.730;9.156;2023-05-07T10:35:42;25.30;99.90
8436;DHT22;4255;48.730;9.156;2023-05-07T10:38:09;25.40;1.00
8436;DHT22;4255;48.730;9.156;2023-05-07T10:40:35;25.90;1.00
8436;DHT22;4255;48.730;9.156;2023-05-07T10:43:03;26.40;99.90
8436;DHT22;4255;48.730;9.156;2023-05-07T10:45:30;26.80;99.90
8436;DHT22;4255;48.730;9.156;2023-05-07T10:48:06;27.30;99.90
8436;DHT22;4255;48.730;9.156;2023-05-07T10:50:33;27.40;99.90
8436;DHT22;4255;48.730;9.156;2023-05-07T10:55:50;27.40;1.00
8436;DHT22;4255;48.730;9.156;2023-05-07T10:58:26;27.40;99.90
8436;DHT22;4255;48.730;9.156;2023-05-07T11:01:00;27.20;1.00
8436;DHT22;4255;48.730;9.156;2023-05-07T11:03:26;27.40;1.00
8436;DHT22;4255;48.730;9.156;2023-05-07T11:06:12;27.40;1.00
8436;DHT22;4255;48.730;9.156;2023-05-07T11:08:57;27.20;99.90
8436;DHT22;4255;48.730;9.156;2023-05-07T11:14:11;27.00;1.00
8436;DHT22;4255;48.730;9.156;2023-05-07T11:16:37;27.20;1.00
8436;DHT22;4255;48.730;9.156;2023-05-07T11:19:03;27.60;1.00
8436;DHT22;4255;48.730;9.156;2023-05-07T11:21:33;27.60;15.20
8436;DHT22;4255;48.730;9.156;2023-05-07T11:24:00;27.60;56.30
8436;DHT22;4255;48.730;9.156;2023-05-07T11:26:27;27.60;1.00
8436;DHT22;4255;48.730;9.156;2023-05-07T11:28:53;27.70;1.00
8436;DHT22;4255;48.730;9.156;2023-05-07T11:31:27;27.40;1.00
8436;DHT22;4255;48.730;9.156;2023-05-07T11:33:54;27.20;99.90
8436;DHT22;4255;48.730;9.156;2023-05-07T11:36:22;26.80;99.90
8436;DHT22;4255;48.730;9.156;2023-05-07T11:38:48;26.80;1.00
8436;DHT22;4255;48.730;9.156;2023-05-07T11:41:13;26.40;99.90
8436;DHT22;4255;48.730;9.156;2023-05-07T11:43:53;26.20;99.90
8436;DHT22;4255;48.730;9.156;2023-05-07T11:46:20;26.10;1.00
8436;DHT22;4255;48.730;9.156;2023-05-07T11:48:46;26.00;98.60
8436;DHT22;4255;48.730;9.156;2023-05-07T11:51:11;25.90;1.00
8436;DHT22;4255;48.730;9.156;2023-05-07T11:53:40;25.90;1.00
8436;DHT22;4255;48.730;9.156;2023-05-07T11:56:11;26.00;1.00
8436;DHT22;4255;48.730;9.156;2023-05-07T11:58:37;26.10;1.00
8436;DHT22;4255;48.730;9.156;2023-05-07T12:01:03;26.20;1.00
8436;DHT22;4255;48.730;9.156;2023-05-07T12:03:29;26.20;1.00
8436;DHT22;4255;48.730;9.156;2023-05-07T12:05:54;26.20;1.00
8436;DHT22;4255;48.730;9.156;2023-05-07T12:08:21;26.10;1.00
8436;DHT22;4255;48.730;9.156;2023-05-07T12:10:49;24.90;1.00
8436;DHT22;4255;48.730;9.156;2023-05-07T12:13:19;23.80;1.00
8436;DHT22;4255;48.730;9.156;2023-05-07T12:15:45;23.20;1.00
8436;DHT22;4255;48.730;9.156;2023-05-07T12:18:11;22.60;99.90
8436;DHT22;4255;48.730;9.156;2023-05-07T12:20:38;22.10;1.00
8436;DHT22;4255;48.730;9.156;2023-05-07T12:23:04;21.70;1.00
8436;DHT22;4255;48.730;9.156;2023-05-07T12:25:40;21.30;1.00
8436;DHT22;4255;48.730;9.156;2023-05-07T12:28:16;21.10;1.00
8436;DHT22;4255;48.730;9.156;2023-05-07T12:30:47;21.00;1.00
8436;DHT22;4255;48.730;9.156;2023-05-07T12:33:16;20.80;1.00
8436;DHT22;4255;48.730;9.156;2023-05-07T12:35:43;20.60;1.00
8436;DHT22;4255;48.730;9.156;2023-05-07T12:38:14;20.20;1.00
8436;DHT22;4255;48.730;9.156;2023-05-07T12:40:43;20.00;1.00
8436;DHT22;4255;48.730;9.156;2023-05-07T12:43:19;19.40;1.00
8436;DHT22;4255;48.730;9.156;2023-05-07T12:45:47;18.80;1.00
8436;DHT22;4255;48.730;9.156;2023-05-07T12:48:13;18.40;1.00
8436;DHT22;4255;48.730;9.156;2023-05-07T12:50:39;18.00;1.00
8436;DHT22;4255;48.730;9.156;2023-05-07T12:53:06;17.60;20.90
8436;DHT22;4255;48.730;9.156;2023-05-07T12:55:47;17.30;59.00
8436;DHT22;4255;48.730;9.156;2023-05-07T12:58:40;17.30;43.80
8436;DHT22;4255;48.730;9.156;2023-05-07T13:01:07;17.40;19.90
8436;DHT22;4255;48.730;9.156;2023-05-07T13:03:34;17.60;1.00
8436;DHT22;4255;48.730;9.156;2023-05-07T13:06:05;18.00;1.00
8436;DHT22;4255;48.730;9.156;2023-05-07T13:08:36;18.30;1.00
8436;DHT22;4255;48.730;9.156;2023-05-07T13:11:10;18.40;1.00
8436;DHT22;4255;48.730;9.156;2023-05-07T13:13:37;18.50;3.60
8436;DHT22;4255;48.730;9.156;2023-05-07T13:16:04;18.70;8.80
8436;DHT22;4255;48.730;9.156;2023-05-07T13:18:32;18.90;42.80
8436;DHT22;4255;48.730;9.156;2023-05-07T13:20:58;18.80;31.10
8436;DHT22;4255;48.730;9.156;2023-05-07T13:23:24;18.30;64.60
8436;DHT22;4255;48.730;9.156;2023-05-07T13:25:50;17.70;99.90
8436;DHT22;4255;48.730;9.156;2023-05-07T13:28:16;17.20;81.30
8436;DHT22;4255;48.730;9.156;2023-05-07T13:30:42;16.80;99.90
8436;DHT22;4255;48.730;9.156;2023-05-07T13:33:08;16.60;99.90
8436;DHT22;4255;48.730;9.156;2023-05-07T13:35:33;16.50;99.90
8436;DHT22;4255;48.730;9.156;2023-05-07T13:37:59;16.40;99.90
8436;DHT22;4255;48.730;9.156;2023-05-07T13:40:25;16.30;99.90
8436;DHT22;4255;48.730;9.156;2023-05-07T13:42:50;16.30;99.90
8436;DHT22;4255;48.730;9.156;2023-05-07T13:45:17;16.40;99.90
8436;DHT22;4255;48.730;9.156;2023-05-07T13:47:43;16.70;99.90
8436;DHT22;4255;48.730;9.156;2023-05-07T13:50:10;16.80;99.90
8436;DHT22;4255;48.730;9.156;2023-05-07T13:52:37;17.10;99.90
8436;DHT22;4255;48.730;9.156;2023-05-07T13:55:03;17.20;99.90
8436;DHT22;4255;48.730;9.156;2023-05-07T13:57:28;16.80;99.90
8436;DHT22;4255;48.730;9.156;2023-05-07T13:59:54;16.50;99.90
8436;DHT22;4255;48.730;9.156;2023-05-07T14:02:20;16.30;99.90
8436;DHT22;4255;48.730;9.156;2023-05-07T14:04:45;16.20;99.90
8436;DHT22;4255;48.730;9.156;2023-05-07T14:07:11;16.10;99.90
8436;DHT22;4255;48.730;9.156;2023-05-07T14:09:37;16.00;99.90
8436;DHT22;4255;48.730;9.156;2023-05-07T14:12:02;16.10;99.90
8436;DHT22;4255;48.730;9.156;2023-05-07T14:14:28;16.00;99.90
8436;DHT22;4255;48.730;9.156;2023-05-07T14:16:53;16.10;99.90
8436;DHT22;4255;48.730;9.156;2023-05-07T14:19:19;16.00;99.90
8436;DHT22;4255;48.730;9.156;2023-05-07T14:21:45;16.00;99.90
8436;DHT22;4255;48.730;9.156;2023-05-07T14:24:10;16.10;99.90
8436;DHT22;4255;48.730;9.156;2023-05-07T14:26:36;16.10;99.90
8436;DHT22;4255;48.730;9.156;2023-05-07T14:29:02;16.10;99.90
8436;DHT22;4255;48.730;9.156;2023-05-07T14:31:28;16.20;99.90
8436;DHT22;4255;48.730;9.156;2023-05-07T14:33:54;16.30;99.90
8436;DHT22;4255;48.730;9.156;2023-05-07T14:36:20;16.20;99.90
8436;DHT22;4255;48.730;9.156;2023-05-07T14:38:46;16.30;99.90
8436;DHT22;4255;48.730;9.156;2023-05-07T14:41:12;16.20;99.90
8436;DHT22;4255;48.730;9.156;2023-05-07T14:43:38;16.30;99.90
8436;DHT22;4255;48.730;9.156;2023-05-07T14:46:03;16.30;99.90
8436;DHT22;4255;48.730;9.156;2023-05-07T14:48:29;16.40;99.90
8436;DHT22;4255;48.730;9.156;2023-05-07T14:50:55;16.60;99.90
8436;DHT22;4255;48.730;9.156;2023-05-07T14:53:21;16.60;99.90
8436;DHT22;4255;48.730;9.156;2023-05-07T14:55:47;16.60;99.90
8436;DHT22;4255;48.730;9.156;2023-05-07T14:58:13;16.80;99.90
8436;DHT22;4255;48.730;9.156;2023-05-07T15:00:39;17.10;99.90
8436;DHT22;4255;48.730;9.156;2023-05-07T15:03:09;17.30;99.90
8436;DHT22;4255;48.730;9.156;2023-05-07T15:05:35;17.50;99.90
8436;DHT22;4255;48.730;9.156;2023-05-07T15:08:01;17.70;99.90
8436;DHT22;4255;48.730;9.156;2023-05-07T15:10:27;17.90;99.90
8436;DHT22;4255;48.730;9.156;2023-05-07T15:12:53;18.10;99.90
8436;DHT22;4255;48.730;9.156;2023-05-07T15:15:19;17.90;99.90
8436;DHT22;4255;48.730;9.156;2023-05-07T15:17:44;18.10;99.90
8436;DHT22;4255;48.730;9.156;2023-05-07T15:20:10;18.20;99.90
8436;DHT22;4255;48.730;9.156;2023-05-07T15:22:36;18.20;99.90
8436;DHT22;4255;48.730;9.156;2023-05-07T15:25:03;18.20;99.90
8436;DHT22;4255;48.730;9.156;2023-05-07T15:27:29;18.40;99.90
8436;DHT22;4255;48.730;9.156;2023-05-07T15:29:56;18.60;99.90
8436;DHT22;4255;48.730;9.156;2023-05-07T15:32:22;18.70;99.90
8436;DHT22;4255;48.730;9.156;2023-05-07T15:34:48;18.90;99.90
8436;DHT22;4255;48.730;9.156;2023-05-07T15:37:13;19.10;99.90
8436;DHT22;4255;48.730;9.156;2023-05-07T15:39:39;19.10;99.90
8436;DHT22;4255;48.730;9.156;2023-05-07T15:42:05;19.00;99.90
8436;DHT22;4255;48.730;9.156;2023-05-07T15:44:30;19.00;99.90
8436;DHT22;4255;48.730;9.156;2023-05-07T15:46:58;18.70;99.90
8436;DHT22;4255;48.730;9.156;2023-05-07T15:49:24;18.40;99.90
8436;DHT22;4255;48.730;9.156;2023-05-07T15:51:50;18.30;99.90
8436;DHT22;4255;48.730;9.156;2023-05-07T15:54:16;18.30;99.90
8436;DHT22;4255;48.730;9.156;2023-05-07T15:56:45;18.30;99.90
8436;DHT22;4255;48.730;9.156;2023-05-07T15:59:11;18.50;99.90
8436;DHT22;4255;48.730;9.156;2023-05-07T16:01:37;18.80;99.90
8436;DHT22;4255;48.730;9.156;2023-05-07T16:04:03;18.90;99.90
8436;DHT22;4255;48.730;9.156;2023-05-07T16:06:29;18.80;99.90
8436;DHT22;4255;48.730;9.156;2023-05-07T16:08:55;18.70;99.90
8436;DHT22;4255;48.730;9.156;2023-05-07T16:11:21;18.40;99.90
8436;DHT22;4255;48.730;9.156;2023-05-07T16:13:47;18.40;99.90